createdAt,value
2018-03-25T00:02:00.166Z,36.77
2018-03-25T00:04:27.721Z,31.30
2018-03-25T00:06:55.300Z,35.97
2018-03-25T00:09:22.858Z,32.50
2018-03-25T00:11:50.405Z,34.90
2018-03-25T00:14:17.945Z,32.13
2018-03-25T00:16:45.515Z,33.83
2018-03-25T00:19:13.064Z,36.13
2018-03-25T00:21:40.633Z,37.80
2018-03-25T00:24:08.190Z,36.47
2018-03-25T00:26:35.777Z,34.93
2018-03-25T00:29:03.325Z,33.87
2018-03-25T00:31:30.916Z,41.80
2018-03-25T00:33:58.454Z,37.40
2018-03-25T00:36:26.037Z,39.33
2018-03-25T00:38:53.597Z,35.83
2018-03-25T00:41:21.143Z,39.97
2018-03-25T00:43:48.717Z,39.03
2018-03-25T00:46:16.263Z,35.43
2018-03-25T00:48:43.868Z,37.13
2018-03-25T00:51:12.177Z,43.97
2018-03-25T00:53:39.774Z,36.23
2018-03-25T00:56:07.372Z,35.23
2018-03-25T00:58:34.954Z,44.90
2018-03-25T01:01:02.725Z,37.67
2018-03-25T01:03:30.286Z,41.47
2018-03-25T01:05:57.846Z,40.47
2018-03-25T01:08:25.414Z,37.23
2018-03-25T01:10:52.969Z,37.73
2018-03-25T01:13:20.533Z,41.73
2018-03-25T01:15:59.999Z,38.73
2018-03-25T01:18:28.349Z,37.23
2018-03-25T01:20:55.877Z,45.10
2018-03-25T01:23:23.447Z,39.07
2018-03-25T01:25:51.012Z,41.77
2018-03-25T01:28:18.587Z,44.13
2018-03-25T01:30:46.255Z,38.00
2018-03-25T01:33:13.794Z,41.13
2018-03-25T01:35:41.381Z,43.30
2018-03-25T01:38:08.925Z,41.83
2018-03-25T01:40:36.506Z,40.83
2018-03-25T01:43:04.058Z,39.40
2018-03-25T01:45:31.717Z,41.67
2018-03-25T01:47:59.257Z,41.07
2018-03-25T01:50:26.806Z,39.03
2018-03-25T01:52:54.375Z,41.87
2018-03-25T01:55:21.937Z,42.53
2018-03-25T01:57:49.479Z,41.80
2018-03-25T02:00:17.057Z,40.33
2018-03-25T02:02:44.595Z,46.10
2018-03-25T02:05:12.900Z,41.93
2018-03-25T02:07:40.479Z,46.50
2018-03-25T02:10:08.037Z,44.13
2018-03-25T02:12:35.595Z,40.87
2018-03-25T02:15:03.160Z,39.53
2018-03-25T02:17:30.730Z,42.33
2018-03-25T02:19:58.272Z,42.87
2018-03-25T02:22:25.865Z,46.43
2018-03-25T02:24:53.410Z,41.93
2018-03-25T02:27:20.979Z,47.53
2018-03-25T02:29:48.520Z,44.90
2018-03-25T02:32:16.085Z,44.10
2018-03-25T02:34:43.649Z,49.90
2018-03-25T02:37:11.203Z,50.33
2018-03-25T02:39:38.778Z,47.87
2018-03-25T02:42:06.326Z,43.00
2018-03-25T02:44:33.892Z,41.37
2018-03-25T02:47:01.426Z,40.90
2018-03-25T02:49:29.005Z,37.47
2018-03-25T02:51:56.563Z,41.27
2018-03-25T02:54:24.167Z,44.40
2018-03-25T02:56:52.494Z,42.70
2018-03-25T02:59:20.048Z,42.23
2018-03-25T03:01:47.593Z,38.90
2018-03-25T03:04:15.149Z,39.60
2018-03-25T03:06:42.687Z,41.80
2018-03-25T03:09:11.053Z,42.13
2018-03-25T03:11:38.613Z,39.73
2018-03-25T03:14:06.160Z,42.93
2018-03-25T03:16:33.725Z,41.73
2018-03-25T03:19:01.267Z,37.87
2018-03-25T03:21:28.831Z,37.43
2018-03-25T03:23:56.380Z,40.50
2018-03-25T03:26:23.940Z,41.60
2018-03-25T03:28:51.592Z,39.50
2018-03-25T03:31:19.174Z,42.03
2018-03-25T03:33:46.734Z,38.40
2018-03-25T03:36:14.318Z,46.03
2018-03-25T03:38:41.853Z,42.17
2018-03-25T03:41:09.493Z,41.93
2018-03-25T03:43:37.034Z,42.93
2018-03-25T03:46:04.579Z,37.97
2018-03-25T03:48:32.911Z,43.03
2018-03-25T03:51:00.460Z,44.23
2018-03-25T03:53:28.114Z,45.57
2018-03-25T03:55:55.659Z,42.87
2018-03-25T03:58:23.214Z,42.73
2018-03-25T04:00:50.747Z,35.47
2018-03-25T04:03:18.329Z,47.03
2018-03-25T04:05:45.915Z,39.20
2018-03-25T04:08:13.476Z,42.30
2018-03-25T04:10:41.034Z,41.67
2018-03-25T04:13:08.699Z,47.30
2018-03-25T04:15:36.233Z,43.27
2018-03-25T04:18:03.820Z,46.10
2018-03-25T04:20:31.417Z,48.27
2018-03-25T04:22:58.959Z,47.93
2018-03-25T04:25:26.561Z,45.33
2018-03-25T04:27:54.901Z,45.70
2018-03-25T04:30:22.462Z,39.20
2018-03-25T04:32:50.018Z,42.40
2018-03-25T04:35:17.582Z,40.90
2018-03-25T04:37:45.117Z,43.13
2018-03-25T04:40:12.698Z,37.47
2018-03-25T04:42:40.241Z,46.07
2018-03-25T04:45:07.832Z,47.70
2018-03-25T04:47:35.372Z,44.20
2018-03-25T04:50:02.936Z,41.20
2018-03-25T04:52:30.474Z,43.83
2018-03-25T04:54:58.024Z,40.17
2018-03-25T04:57:25.587Z,47.67
2018-03-25T04:59:53.127Z,45.77
2018-03-25T05:02:21.441Z,38.23
2018-03-25T05:04:48.975Z,42.33
2018-03-25T05:07:16.549Z,44.50
2018-03-25T05:09:44.093Z,47.27
2018-03-25T05:12:11.782Z,43.30
2018-03-25T05:14:39.369Z,42.87
2018-03-25T05:17:06.947Z,40.73
2018-03-25T05:19:34.489Z,43.80
2018-03-25T05:22:02.059Z,39.77
2018-03-25T05:24:29.599Z,38.43
2018-03-25T05:26:57.133Z,40.53
2018-03-25T05:29:24.717Z,41.63
2018-03-25T05:31:53.023Z,42.03
2018-03-25T05:34:20.579Z,38.77
2018-03-25T05:36:48.119Z,42.53
2018-03-25T05:39:15.680Z,38.97
2018-03-25T05:41:43.202Z,42.43
2018-03-25T05:44:10.887Z,44.40
2018-03-25T05:46:38.431Z,41.10
2018-03-25T05:49:05.981Z,39.37
2018-03-25T05:51:33.545Z,40.97
2018-03-25T05:54:01.118Z,38.20
2018-03-25T05:56:29.414Z,42.07
2018-03-25T05:58:56.958Z,38.80
2018-03-25T06:01:24.509Z,40.30
2018-03-25T06:03:52.063Z,39.57
2018-03-25T06:06:19.636Z,38.03
2018-03-25T06:08:47.193Z,34.87
2018-03-25T06:11:14.927Z,37.67
2018-03-25T06:13:43.233Z,30.63
2018-03-25T06:16:10.792Z,32.07
2018-03-25T06:18:38.371Z,34.70
2018-03-25T06:21:05.957Z,30.97
2018-03-25T06:23:33.513Z,28.90
2018-03-25T06:26:01.078Z,31.50
2018-03-25T06:28:28.641Z,31.30
2018-03-25T06:30:56.195Z,27.67
2018-03-25T06:33:23.745Z,26.17
2018-03-25T06:35:51.275Z,30.83
2018-03-25T06:38:18.847Z,30.27
2018-03-25T06:40:46.401Z,31.43
2018-03-25T06:43:14.072Z,26.83
2018-03-25T06:45:41.597Z,30.03
2018-03-25T06:48:10.019Z,27.97
2018-03-25T06:50:37.558Z,29.27
2018-03-25T06:53:05.119Z,31.07
2018-03-25T06:55:32.701Z,28.80
2018-03-25T06:58:04.041Z,27.50
2018-03-25T07:00:31.681Z,29.30
2018-03-25T07:03:00.596Z,26.90
2018-03-25T07:05:31.634Z,27.13
2018-03-25T07:08:03.428Z,25.13
2018-03-25T07:10:31.734Z,26.00
2018-03-25T07:12:59.499Z,23.43
2018-03-25T07:15:32.260Z,24.87
2018-03-25T07:18:01.769Z,25.10
2018-03-25T07:20:30.366Z,24.63
2018-03-25T07:23:00.354Z,27.27
2018-03-25T07:25:28.094Z,27.23
2018-03-25T07:27:56.212Z,22.00
2018-03-25T07:30:25.620Z,25.47
2018-03-25T07:32:53.317Z,28.80
2018-03-25T07:35:23.404Z,26.73
2018-03-25T07:37:54.129Z,28.70
2018-03-25T07:40:21.889Z,28.13
2018-03-25T07:42:52.122Z,25.50
2018-03-25T07:45:20.561Z,26.00
2018-03-25T07:47:49.308Z,25.97
2018-03-25T07:50:17.647Z,25.77
2018-03-25T07:52:46.233Z,26.83
2018-03-25T07:55:14.906Z,27.63
2018-03-25T07:57:42.551Z,30.07
2018-03-25T08:00:11.208Z,27.67
2018-03-25T08:02:40.878Z,25.70
2018-03-25T08:05:08.620Z,25.77
2018-03-25T08:07:37.163Z,27.60
2018-03-25T08:10:05.619Z,27.00
2018-03-25T08:12:37.493Z,28.37
2018-03-25T08:15:06.955Z,24.70
2018-03-25T08:17:34.522Z,26.40
2018-03-25T08:20:02.113Z,27.97
2018-03-25T08:22:29.673Z,25.93
2018-03-25T08:24:57.336Z,27.70
2018-03-25T08:27:25.084Z,29.57
2018-03-25T08:29:55.392Z,26.33
2018-03-25T08:32:22.979Z,28.97
2018-03-25T08:34:51.650Z,28.20
2018-03-25T08:37:19.360Z,25.30
2018-03-25T08:39:47.077Z,28.93
2018-03-25T08:42:16.061Z,31.57
2018-03-25T08:44:43.711Z,24.93
2018-03-25T08:47:12.089Z,24.87
2018-03-25T08:49:39.664Z,27.90
2018-03-25T08:52:07.209Z,29.07
2018-03-25T08:54:34.781Z,28.27
2018-03-25T08:57:02.408Z,28.70
2018-03-25T08:59:30.814Z,29.80
2018-03-25T09:01:58.509Z,28.87
2018-03-25T09:04:26.599Z,27.63
2018-03-25T09:06:55.690Z,28.07
2018-03-25T09:09:23.718Z,31.90
2018-03-25T09:11:52.286Z,28.80
2018-03-25T09:14:21.656Z,26.50
2018-03-25T09:16:51.895Z,27.33
2018-03-25T09:19:20.448Z,27.50
2018-03-25T09:23:56.055Z,28.67
2018-03-25T09:26:23.618Z,32.83
2018-03-25T09:28:51.190Z,27.63
2018-03-25T09:31:18.738Z,27.63
2018-03-25T09:33:46.327Z,29.67
2018-03-25T09:36:13.898Z,31.33
2018-03-25T09:38:41.501Z,27.07
2018-03-25T09:41:09.145Z,28.87
2018-03-25T09:43:36.707Z,30.67
2018-03-25T09:46:05.026Z,28.37
2018-03-25T09:48:32.602Z,28.87
2018-03-25T09:51:00.172Z,31.40
2018-03-25T09:53:27.760Z,28.83
2018-03-25T09:55:55.350Z,27.40
2018-03-25T09:58:23.715Z,29.23
2018-03-25T10:04:02.492Z,32.23
2018-03-25T10:06:30.026Z,32.20
2018-03-25T10:08:58.399Z,30.93
2018-03-25T10:11:26.730Z,31.37
2018-03-25T10:13:54.297Z,34.77
2018-03-25T10:16:21.842Z,31.23
2018-03-25T10:18:49.401Z,32.20
2018-03-25T10:21:16.946Z,32.37
2018-03-25T10:23:44.509Z,30.63
2018-03-25T10:26:12.065Z,28.30
2018-03-25T10:28:39.623Z,29.93
2018-03-25T10:31:07.187Z,31.97
2018-03-25T10:33:34.777Z,32.17
2018-03-25T10:36:02.328Z,32.37
2018-03-25T10:38:29.901Z,29.13
2018-03-25T10:40:58.428Z,31.60
2018-03-25T10:43:26.037Z,31.13
2018-03-25T10:45:53.598Z,30.37
2018-03-25T10:48:21.188Z,35.23
2018-03-25T10:50:48.741Z,31.67
2018-03-25T10:53:16.308Z,29.93
2018-03-25T10:55:43.891Z,31.30
2018-03-25T10:58:12.193Z,30.80
2018-03-25T11:00:39.767Z,29.67
2018-03-25T11:03:07.311Z,27.90
2018-03-25T11:05:34.902Z,26.97
2018-03-25T11:08:02.468Z,26.93
2018-03-25T11:10:30.037Z,32.97
2018-03-25T11:12:57.587Z,29.03
2018-03-25T11:15:25.993Z,23.90
2018-03-25T11:17:53.615Z,27.73
2018-03-25T11:20:21.178Z,25.83
2018-03-25T11:22:48.706Z,28.03
2018-03-25T11:25:17.046Z,28.60
2018-03-25T11:27:44.594Z,26.97
2018-03-25T11:30:12.147Z,26.93
2018-03-25T11:32:40.478Z,29.03
2018-03-25T11:35:08.812Z,29.93
2018-03-25T11:37:37.158Z,27.80
2018-03-25T11:40:04.720Z,27.23
2018-03-25T11:42:32.314Z,28.93
2018-03-25T11:44:59.890Z,26.13
2018-03-25T11:47:27.485Z,26.67
2018-03-25T11:49:55.029Z,24.50
2018-03-25T11:52:22.612Z,30.70
2018-03-25T11:54:50.181Z,32.03
2018-03-25T11:57:17.758Z,26.53
2018-03-25T11:59:45.291Z,21.83
2018-03-25T12:02:12.852Z,26.60
2018-03-25T12:04:41.170Z,26.03
2018-03-25T12:07:08.707Z,27.40
2018-03-25T12:09:36.307Z,24.80
2018-03-25T12:12:03.864Z,27.87
2018-03-25T12:14:31.428Z,24.63
2018-03-25T12:16:58.965Z,26.97
2018-03-25T12:19:26.542Z,30.40
2018-03-25T12:21:54.079Z,29.17
2018-03-25T12:24:21.851Z,28.33
2018-03-25T12:26:49.402Z,30.20
2018-03-25T12:29:17.016Z,26.83
2018-03-25T12:31:44.602Z,28.43
2018-03-25T12:34:12.240Z,27.83
2018-03-25T12:36:40.593Z,29.83
2018-03-25T12:39:08.406Z,28.07
2018-03-25T12:41:36.740Z,28.97
2018-03-25T12:44:04.279Z,27.17
2018-03-25T12:46:31.881Z,29.30
2018-03-25T12:48:59.414Z,27.17
2018-03-25T12:51:26.994Z,30.03
2018-03-25T12:53:54.548Z,27.53
2018-03-25T12:56:22.173Z,30.13
2018-03-25T12:58:49.709Z,27.63
2018-03-25T13:01:18.061Z,24.77
2018-03-25T13:03:45.626Z,26.27
2018-03-25T13:06:13.960Z,34.20
2018-03-25T13:08:41.511Z,29.70
2018-03-25T13:11:09.111Z,30.93
2018-03-25T13:13:36.659Z,29.40
2018-03-25T13:16:04.994Z,29.87
2018-03-25T13:18:32.550Z,32.37
2018-03-25T13:21:00.866Z,28.80
2018-03-25T13:23:28.452Z,30.17
2018-03-25T13:25:56.001Z,28.23
2018-03-25T13:28:23.648Z,30.00
2018-03-25T13:30:51.200Z,28.53
2018-03-25T13:33:18.767Z,33.90
2018-03-25T13:35:46.348Z,27.13
2018-03-25T13:38:13.933Z,40.60
2018-03-25T13:40:42.264Z,31.20
2018-03-25T13:43:09.883Z,29.27
2018-03-25T13:45:37.414Z,26.83
2018-03-25T13:48:04.963Z,33.97
2018-03-25T13:50:32.517Z,27.63
2018-03-25T13:53:00.093Z,29.40
2018-03-25T13:55:27.674Z,31.13
2018-03-25T13:57:55.220Z,30.67
2018-03-25T14:00:22.796Z,30.97
2018-03-25T14:02:51.296Z,27.40
2018-03-25T14:05:19.688Z,26.43
2018-03-25T14:07:47.315Z,29.67
2018-03-25T14:10:14.879Z,30.97
2018-03-25T14:12:42.420Z,30.67
2018-03-25T14:15:09.965Z,28.60
2018-03-25T14:17:37.521Z,36.63
2018-03-25T14:20:05.057Z,31.80
2018-03-25T14:22:32.622Z,33.27
2018-03-25T14:25:00.194Z,30.87
2018-03-25T14:27:27.856Z,29.67
2018-03-25T14:29:55.421Z,33.17
2018-03-25T14:32:22.994Z,28.97
2018-03-25T14:34:51.313Z,32.03
2018-03-25T14:37:19.735Z,30.53
2018-03-25T14:39:47.277Z,29.30
2018-03-25T14:42:14.882Z,30.23
2018-03-25T14:44:42.462Z,30.47
2018-03-25T14:47:10.032Z,32.10
2018-03-25T14:49:38.376Z,28.93
2018-03-25T14:52:05.958Z,30.67
2018-03-25T14:54:33.558Z,28.30
2018-03-25T14:57:01.128Z,33.77
2018-03-25T14:59:28.733Z,27.80
2018-03-25T15:01:57.094Z,30.67
2018-03-25T15:04:24.752Z,32.00
2018-03-25T15:06:52.305Z,29.27
2018-03-25T15:09:19.896Z,33.20
2018-03-25T15:11:47.476Z,30.40
2018-03-25T15:14:15.068Z,31.20
2018-03-25T15:16:42.612Z,28.93
2018-03-25T15:19:10.938Z,29.73
2018-03-25T15:21:38.492Z,34.83
2018-03-25T15:24:06.092Z,29.73
2018-03-25T15:26:33.655Z,29.47
2018-03-25T15:29:01.197Z,32.00
2018-03-25T15:31:28.759Z,35.20
2018-03-25T15:33:56.303Z,33.30
2018-03-25T15:36:24.648Z,34.03
2018-03-25T15:38:52.186Z,32.53
2018-03-25T15:41:20.528Z,31.00
2018-03-25T15:43:48.088Z,33.33
2018-03-25T15:46:15.678Z,31.13
2018-03-25T15:48:43.221Z,36.87
2018-03-25T15:51:10.831Z,35.40
2018-03-25T15:53:38.425Z,36.27
2018-03-25T15:56:06.003Z,38.33
2018-03-25T15:58:33.542Z,35.10
2018-03-25T16:01:01.119Z,34.40
2018-03-25T16:03:28.669Z,37.17
2018-03-25T16:05:56.238Z,40.13
2018-03-25T16:08:23.790Z,38.57
2018-03-25T16:10:51.336Z,39.07
2018-03-25T16:13:18.929Z,35.93
2018-03-25T16:15:48.502Z,37.83
2018-03-25T16:18:16.078Z,35.83
2018-03-25T16:20:43.631Z,38.17
2018-03-25T16:23:11.198Z,35.30
2018-03-25T16:25:40.662Z,32.27
2018-03-25T16:28:10.196Z,34.63
2018-03-25T16:30:37.786Z,38.17
2018-03-25T16:33:05.351Z,33.87
2018-03-25T16:35:32.889Z,35.90
2018-03-25T16:38:00.462Z,33.67
2018-03-25T16:40:28.019Z,30.80
2018-03-25T16:42:55.604Z,38.93
2018-03-25T16:45:24.602Z,36.20
2018-03-25T16:47:52.220Z,33.00
2018-03-25T16:50:19.776Z,38.77
2018-03-25T16:52:47.322Z,38.83
2018-03-25T16:55:14.911Z,40.40
2018-03-25T16:57:42.450Z,36.07
2018-03-25T17:00:10.038Z,36.43
2018-03-25T17:02:37.582Z,36.87
2018-03-25T17:05:05.150Z,39.60
2018-03-25T17:07:32.798Z,38.63
2018-03-25T17:10:00.380Z,37.10
2018-03-25T17:12:28.008Z,35.97
2018-03-25T17:14:55.570Z,37.13
2018-03-25T17:17:23.212Z,35.57
2018-03-25T17:19:51.728Z,41.10
2018-03-25T17:22:19.391Z,39.10
2018-03-25T17:24:47.272Z,36.80
2018-03-25T17:27:15.743Z,41.43
2018-03-25T17:29:43.300Z,38.43
2018-03-25T17:32:10.864Z,43.70
2018-03-25T17:34:38.423Z,43.10
2018-03-25T17:37:07.369Z,48.87
2018-03-25T17:39:34.954Z,40.13
2018-03-25T17:42:02.691Z,48.00
2018-03-25T17:44:30.303Z,40.20
2018-03-25T17:46:58.028Z,38.13
2018-03-25T17:49:26.621Z,47.33
2018-03-25T17:51:54.988Z,39.23
2018-03-25T17:54:22.816Z,42.37
2018-03-25T17:56:50.350Z,46.13
2018-03-25T17:59:17.921Z,43.77
2018-03-25T18:01:45.489Z,40.50
2018-03-25T18:04:13.872Z,44.23
2018-03-25T18:06:42.249Z,40.60
2018-03-25T18:09:09.896Z,43.03
2018-03-25T18:11:37.429Z,38.37
2018-03-25T18:14:05.934Z,43.40
2018-03-25T18:16:33.533Z,47.83
2018-03-25T18:19:01.917Z,43.23
2018-03-25T18:21:30.008Z,39.57
2018-03-25T18:23:57.637Z,44.33
2018-03-25T18:26:25.217Z,43.57
2018-03-25T18:28:53.674Z,45.60
2018-03-25T18:31:21.321Z,48.20
2018-03-25T18:33:48.901Z,43.70
2018-03-25T18:36:16.483Z,44.10
2018-03-25T18:38:44.157Z,41.67
2018-03-25T18:41:11.785Z,44.17
2018-03-25T18:43:39.415Z,41.97
2018-03-25T18:46:06.966Z,42.63
2018-03-25T18:48:35.322Z,45.33
2018-03-25T18:51:02.936Z,41.33
2018-03-25T18:53:30.499Z,43.50
2018-03-25T18:55:58.979Z,44.43
2018-03-25T18:58:26.668Z,41.93
2018-03-25T19:00:54.247Z,42.37
2018-03-25T19:03:22.600Z,41.73
2018-03-25T19:05:50.204Z,40.10
2018-03-25T19:08:18.581Z,47.00
2018-03-25T19:10:46.949Z,43.93
2018-03-25T19:13:14.598Z,44.03
2018-03-25T19:15:43.195Z,44.80
2018-03-25T19:18:11.585Z,42.73
2018-03-25T19:20:39.162Z,41.03
2018-03-25T19:23:06.850Z,44.57
2018-03-25T19:25:34.390Z,48.07
2018-03-25T19:28:01.954Z,43.00
2018-03-25T19:30:29.558Z,41.73
2018-03-25T19:32:57.147Z,40.60
2018-03-25T19:35:26.319Z,44.37
2018-03-25T19:37:54.704Z,46.80
2018-03-25T19:40:23.208Z,42.67
2018-03-25T19:42:50.853Z,38.63
2018-03-25T19:45:18.499Z,45.37
2018-03-25T19:47:46.074Z,48.10
2018-03-25T19:50:13.612Z,46.13
2018-03-25T19:52:41.223Z,44.13
2018-03-25T19:55:09.635Z,46.57
2018-03-25T19:57:37.222Z,46.77
2018-03-25T20:00:04.763Z,50.20
2018-03-25T20:02:32.437Z,41.43
2018-03-25T20:05:01.093Z,43.90
2018-03-25T20:07:28.640Z,47.63
2018-03-25T20:09:56.238Z,45.63
2018-03-25T20:12:23.872Z,39.17
2018-03-25T20:14:51.422Z,39.17
2018-03-25T20:17:19.860Z,42.43
2018-03-25T20:19:47.504Z,45.13
2018-03-25T20:22:15.205Z,40.53
2018-03-25T20:24:43.594Z,39.07
2018-03-25T20:27:11.927Z,43.33
2018-03-25T20:29:39.613Z,34.33
2018-03-25T20:32:07.206Z,33.97
2018-03-25T20:34:35.619Z,31.70
2018-03-25T20:37:03.963Z,36.47
2018-03-25T20:39:32.427Z,32.20
2018-03-25T20:42:00.088Z,32.93
2018-03-25T20:44:27.696Z,30.73
2018-03-25T20:46:55.304Z,31.37
2018-03-25T20:49:23.686Z,32.47
2018-03-25T20:51:51.530Z,29.67
2018-03-25T20:54:19.197Z,29.87
2018-03-25T20:56:46.832Z,31.70
2018-03-25T20:59:14.436Z,27.30
2018-03-25T21:01:42.041Z,28.20
2018-03-25T21:04:10.380Z,32.60
2018-03-25T21:06:37.974Z,29.03
2018-03-25T21:09:05.573Z,31.97
2018-03-25T21:11:33.165Z,30.17
2018-03-25T21:14:00.741Z,29.53
2018-03-25T21:16:28.298Z,30.37
2018-03-25T21:18:56.091Z,27.63
2018-03-25T21:21:23.719Z,29.50
2018-03-25T21:23:52.078Z,29.33
2018-03-25T21:26:19.674Z,27.70
2018-03-25T21:28:48.034Z,25.43
2018-03-25T21:31:15.640Z,34.57
2018-03-25T21:33:43.253Z,31.53
2018-03-25T21:36:11.162Z,30.23
2018-03-25T21:38:38.737Z,28.83
2018-03-25T21:41:06.387Z,28.67
2018-03-25T21:43:34.034Z,35.07
2018-03-25T21:46:01.633Z,31.40
2018-03-25T21:48:29.289Z,31.37
2018-03-25T21:50:57.446Z,25.17
2018-03-25T21:53:25.049Z,29.83
2018-03-25T21:55:52.630Z,29.67
2018-03-25T21:58:20.293Z,28.40
2018-03-25T22:00:47.900Z,30.50
2018-03-25T22:03:15.498Z,31.47
2018-03-25T22:05:43.808Z,32.77
2018-03-25T22:08:12.150Z,33.13
2018-03-25T22:10:39.761Z,33.60
2018-03-25T22:13:08.010Z,30.67
2018-03-25T22:15:36.326Z,31.80
2018-03-25T22:18:04.027Z,30.43
2018-03-25T22:20:31.595Z,28.60
2018-03-25T22:23:00.096Z,31.23
2018-03-25T22:25:28.465Z,31.70
2018-03-25T22:27:56.053Z,32.97
2018-03-25T22:30:23.592Z,30.93
2018-03-25T22:32:52.072Z,32.53
2018-03-25T22:35:20.431Z,32.60
2018-03-25T22:37:48.021Z,27.20
2018-03-25T22:40:15.608Z,31.53
2018-03-25T22:42:43.205Z,34.03
2018-03-25T22:45:11.040Z,32.80
2018-03-25T22:47:38.664Z,33.33
2018-03-25T22:50:07.093Z,34.17
2018-03-25T22:52:34.658Z,31.53
2018-03-25T22:55:02.270Z,30.77
2018-03-25T22:57:29.871Z,32.37
2018-03-25T22:59:58.250Z,32.57
2018-03-25T23:02:25.837Z,34.37
2018-03-25T23:04:53.405Z,30.70
2018-03-25T23:07:20.954Z,30.50
2018-03-25T23:09:49.626Z,30.90
2018-03-25T23:12:17.174Z,32.33
2018-03-25T23:14:44.749Z,34.73
2018-03-25T23:17:12.282Z,29.97
2018-03-25T23:19:39.990Z,30.80
2018-03-25T23:22:08.284Z,30.53
2018-03-25T23:24:35.914Z,31.57
2018-03-25T23:27:03.558Z,31.90
2018-03-25T23:29:31.157Z,37.60
2018-03-25T23:31:59.629Z,34.73
2018-03-25T23:34:27.345Z,33.10
2018-03-25T23:36:56.238Z,34.50
2018-03-25T23:39:23.826Z,34.37
2018-03-25T23:41:51.442Z,33.63
2018-03-25T23:44:18.995Z,33.77
2018-03-25T23:46:46.569Z,34.37
2018-03-25T23:49:14.157Z,34.37
2018-03-25T23:51:41.729Z,31.60
2018-03-25T23:54:09.354Z,33.80
2018-03-25T23:56:37.794Z,31.37
2018-03-25T23:59:05.335Z,32.57
